createdAt,value
2018-12-15T00:01:54.494Z,55.40
2018-12-15T00:04:20.987Z,55.30
2018-12-15T00:06:47.404Z,55.00
2018-12-15T00:09:13.782Z,55.60
2018-12-15T00:11:40.187Z,54.80
2018-12-15T00:14:06.587Z,55.40
2018-12-15T00:16:33.015Z,53.50
2018-12-15T00:18:59.431Z,54.70
2018-12-15T00:21:25.824Z,55.40
2018-12-15T00:23:52.200Z,53.90
2018-12-15T00:26:18.613Z,54.30
2018-12-15T00:28:44.980Z,53.90
2018-12-15T00:31:11.376Z,52.30
2018-12-15T00:33:37.766Z,54.20
2018-12-15T00:36:04.183Z,52.00
2018-12-15T00:38:30.542Z,51.30
2018-12-15T00:40:56.939Z,51.80
2018-12-15T00:43:23.339Z,50.60
2018-12-15T00:45:56.730Z,51.40
2018-12-15T00:48:23.131Z,50.70
2018-12-15T00:50:49.503Z,49.60
2018-12-15T00:53:15.899Z,51.50
2018-12-15T00:55:42.362Z,50.70
2018-12-15T00:58:08.862Z,49.20
2018-12-15T01:00:35.251Z,48.70
2018-12-15T01:03:01.671Z,50.50
2018-12-15T01:05:28.068Z,50.70
2018-12-15T01:07:54.543Z,49.60
2018-12-15T01:10:21.036Z,49.00
2018-12-15T01:12:47.486Z,50.60
2018-12-15T01:15:15.991Z,48.70
2018-12-15T01:17:42.455Z,48.00
2018-12-15T01:20:08.840Z,48.30
2018-12-15T01:22:35.225Z,50.00
2018-12-15T01:25:01.728Z,49.00
2018-12-15T01:27:28.123Z,48.70
2018-12-15T01:29:54.515Z,48.30
2018-12-15T01:32:22.211Z,48.90
2018-12-15T01:34:48.582Z,48.70
2018-12-15T01:37:14.951Z,49.20
2018-12-15T01:39:41.323Z,47.80
2018-12-15T01:42:07.744Z,48.50
2018-12-15T01:44:34.195Z,48.10
2018-12-15T01:47:01.991Z,49.20
2018-12-15T01:49:28.455Z,48.20
2018-12-15T01:51:54.979Z,49.10
2018-12-15T01:54:21.453Z,48.70
2018-12-15T01:56:47.842Z,50.20
2018-12-15T01:59:14.203Z,48.50
2018-12-15T02:01:40.579Z,48.50
2018-12-15T02:04:06.972Z,49.70
2018-12-15T02:06:33.355Z,47.80
2018-12-15T02:08:59.732Z,47.70
2018-12-15T02:11:26.099Z,49.40
2018-12-15T02:13:52.493Z,48.40
2018-12-15T02:16:18.864Z,49.20
2018-12-15T02:18:45.243Z,48.90
2018-12-15T02:21:18.562Z,49.50
2018-12-15T02:23:45.069Z,49.90
2018-12-15T02:26:11.450Z,50.20
2018-12-15T02:28:37.844Z,50.00
2018-12-15T02:31:04.199Z,48.70
2018-12-15T02:33:30.620Z,48.60
2018-12-15T02:35:56.995Z,47.30
2018-12-15T02:38:23.378Z,47.30
2018-12-15T02:40:49.771Z,47.50
2018-12-15T02:43:16.270Z,48.80
2018-12-15T02:45:42.729Z,48.40
2018-12-15T02:48:09.136Z,47.50
2018-12-15T02:50:35.528Z,47.60
2018-12-15T02:53:02.020Z,47.20
2018-12-15T02:55:28.401Z,46.00
2018-12-15T02:57:54.775Z,47.20
2018-12-15T03:00:21.513Z,46.10
2018-12-15T03:02:48.004Z,45.60
2018-12-15T03:05:14.413Z,45.30
2018-12-15T03:07:40.892Z,45.70
2018-12-15T03:10:07.404Z,46.20
2018-12-15T03:12:33.789Z,46.90
2018-12-15T03:15:00.179Z,44.80
2018-12-15T03:17:26.572Z,47.30
2018-12-15T03:19:57.032Z,47.40
2018-12-15T03:22:23.418Z,45.10
2018-12-15T03:24:49.842Z,45.20
2018-12-15T03:27:16.247Z,45.60
2018-12-15T03:29:42.613Z,45.50
2018-12-15T03:32:09.104Z,46.20
2018-12-15T03:34:35.503Z,46.60
2018-12-15T03:37:01.896Z,45.80
2018-12-15T03:39:28.268Z,46.00
2018-12-15T03:41:54.773Z,46.60
2018-12-15T03:44:21.247Z,46.10
2018-12-15T03:46:47.642Z,47.00
2018-12-15T03:49:14.056Z,46.90
2018-12-15T03:51:40.425Z,45.70
2018-12-15T03:54:06.872Z,47.00
2018-12-15T03:56:33.222Z,46.20
2018-12-15T03:58:59.601Z,45.10
2018-12-15T04:01:33.056Z,44.60
2018-12-15T04:03:59.463Z,45.60
2018-12-15T04:06:25.832Z,46.50
2018-12-15T04:08:52.227Z,47.60
2018-12-15T04:11:18.622Z,47.30
2018-12-15T04:13:45.017Z,46.90
2018-12-15T04:16:11.396Z,45.60
2018-12-15T04:18:37.800Z,46.50
2018-12-15T04:21:04.177Z,47.80
2018-12-15T04:23:30.559Z,47.10
2018-12-15T04:25:57.001Z,47.20
2018-12-15T04:28:23.476Z,48.00
2018-12-15T04:30:49.848Z,46.00
2018-12-15T04:33:16.220Z,47.20
2018-12-15T04:35:42.590Z,46.60
2018-12-15T04:38:08.976Z,47.30
2018-12-15T04:40:35.612Z,48.40
2018-12-15T04:43:01.986Z,48.00
2018-12-15T04:45:28.361Z,47.50
2018-12-15T04:47:54.832Z,47.30
2018-12-15T04:50:21.299Z,46.80
2018-12-15T04:52:47.677Z,46.80
2018-12-15T04:55:14.150Z,46.80
2018-12-15T04:57:47.743Z,46.00
2018-12-15T05:00:14.114Z,48.00
2018-12-15T05:02:43.805Z,47.00
2018-12-15T05:05:08.997Z,46.00
2018-12-15T05:07:35.371Z,48.00
2018-12-15T05:10:01.759Z,47.30
2018-12-15T05:12:28.157Z,49.10
2018-12-15T05:14:54.534Z,47.10
2018-12-15T05:17:20.930Z,46.90
2018-12-15T05:19:47.293Z,47.70
2018-12-15T05:22:14.449Z,47.20
2018-12-15T05:24:41.171Z,46.10
2018-12-15T05:27:09.394Z,46.40
2018-12-15T05:29:35.799Z,47.50
2018-12-15T05:32:02.402Z,47.90
2018-12-15T05:34:28.893Z,47.30
2018-12-15T05:36:55.271Z,47.60
2018-12-15T05:39:21.669Z,46.70
2018-12-15T05:41:48.048Z,48.30
2018-12-15T05:44:14.481Z,48.00
2018-12-15T05:46:40.855Z,47.90
2018-12-15T05:49:07.257Z,49.10
2018-12-15T05:51:33.645Z,50.00
2018-12-15T05:54:00.059Z,48.00
2018-12-15T05:56:26.430Z,48.20
2018-12-15T05:58:52.804Z,49.00
2018-12-15T06:01:19.171Z,49.60
2018-12-15T06:03:45.545Z,47.60
2018-12-15T06:06:11.928Z,48.20
2018-12-15T06:08:38.288Z,47.70
2018-12-15T06:11:04.677Z,47.20
2018-12-15T06:13:31.164Z,47.40
2018-12-15T06:15:57.891Z,48.00
2018-12-15T06:18:24.266Z,48.70
2018-12-15T06:20:50.686Z,47.50
2018-12-15T06:23:17.055Z,48.20
2018-12-15T06:25:43.438Z,48.40
2018-12-15T06:28:09.836Z,50.60
2018-12-15T06:30:36.263Z,49.30
2018-12-15T06:33:02.683Z,49.00
2018-12-15T06:35:29.042Z,50.20
2018-12-15T06:37:55.447Z,50.50
2018-12-15T06:40:21.806Z,49.90
2018-12-15T06:42:48.327Z,50.00
2018-12-15T06:45:14.708Z,51.70
2018-12-15T06:47:41.072Z,51.50
2018-12-15T06:50:07.591Z,50.30
2018-12-15T06:52:34.076Z,50.10
2018-12-15T06:55:00.483Z,49.00
2018-12-15T06:57:33.854Z,51.00
2018-12-15T07:00:00.256Z,51.50
2018-12-15T07:02:26.643Z,50.60
2018-12-15T07:04:53.015Z,51.50
2018-12-15T07:07:19.426Z,50.90
2018-12-15T07:09:45.816Z,51.20
2018-12-15T07:12:12.308Z,50.00
2018-12-15T07:14:38.994Z,51.00
2018-12-15T07:17:05.622Z,53.10
2018-12-15T07:19:32.028Z,51.10
2018-12-15T07:22:05.612Z,52.20
2018-12-15T07:24:32.013Z,52.30
2018-12-15T07:26:58.423Z,50.90
2018-12-15T07:29:24.834Z,51.60
2018-12-15T07:31:51.212Z,52.20
2018-12-15T07:34:24.693Z,51.20
2018-12-15T07:36:51.050Z,50.60
2018-12-15T07:39:17.470Z,52.70
2018-12-15T07:41:43.849Z,51.20
2018-12-15T07:44:10.231Z,51.50
2018-12-15T07:46:36.584Z,53.80
2018-12-15T07:49:02.966Z,53.80
2018-12-15T07:51:29.351Z,55.10
2018-12-15T07:53:55.717Z,54.80
2018-12-15T07:56:24.149Z,55.50
2018-12-15T07:58:50.559Z,55.00
2018-12-15T08:01:16.943Z,54.20
2018-12-15T08:03:43.347Z,54.30
2018-12-15T08:06:09.715Z,55.00
2018-12-15T08:08:36.127Z,55.50
2018-12-15T08:11:08.612Z,55.30
2018-12-15T08:13:35.007Z,54.30
2018-12-15T08:16:08.351Z,54.20
2018-12-15T08:18:34.726Z,55.50
2018-12-15T08:21:01.184Z,54.90
2018-12-15T08:23:27.543Z,54.70
2018-12-15T08:25:53.979Z,54.80
2018-12-15T08:28:20.580Z,54.60
2018-12-15T08:30:47.029Z,56.70
2018-12-15T08:33:13.403Z,54.60
2018-12-15T08:35:39.802Z,56.10
2018-12-15T08:38:06.322Z,55.10
2018-12-15T08:40:32.701Z,56.70
2018-12-15T08:42:59.094Z,56.70
2018-12-15T08:45:25.517Z,57.10
2018-12-15T08:47:51.918Z,58.20
2018-12-15T08:50:18.400Z,56.30
2018-12-15T08:52:44.799Z,57.30
2018-12-15T08:55:11.447Z,58.30
2018-12-15T08:57:37.810Z,57.20
2018-12-15T09:00:04.875Z,57.10
2018-12-15T09:02:31.515Z,57.80
2018-12-15T09:04:57.879Z,57.30
2018-12-15T09:07:24.251Z,57.50
2018-12-15T09:09:50.615Z,58.80
2018-12-15T09:12:17.190Z,58.50
2018-12-15T09:14:43.608Z,58.50
2018-12-15T09:17:10.000Z,59.10
2018-12-15T09:19:36.392Z,60.10
2018-12-15T09:22:02.802Z,60.20
2018-12-15T09:24:29.308Z,61.60
2018-12-15T09:26:55.662Z,61.40
2018-12-15T09:29:28.871Z,60.20
2018-12-15T09:31:55.294Z,60.20
2018-12-15T09:34:21.722Z,60.10
2018-12-15T09:36:48.092Z,60.90
2018-12-15T09:39:14.467Z,61.10
2018-12-15T09:41:40.831Z,60.30
2018-12-15T09:44:07.528Z,60.60
2018-12-15T09:46:34.133Z,62.20
2018-12-15T09:49:00.480Z,62.80
2018-12-15T09:51:26.906Z,62.70
2018-12-15T09:53:53.292Z,63.10
2018-12-15T09:56:19.687Z,62.80
2018-12-15T09:58:46.071Z,63.10
2018-12-15T10:01:12.544Z,63.40
2018-12-15T10:03:38.912Z,61.50
2018-12-15T10:06:05.827Z,62.10
2018-12-15T10:08:32.225Z,61.80
2018-12-15T10:10:58.603Z,61.60
2018-12-15T10:13:24.995Z,62.40
2018-12-15T10:15:58.202Z,63.20
2018-12-15T10:18:24.614Z,62.50
2018-12-15T10:20:51.104Z,63.10
2018-12-15T10:23:17.483Z,61.90
2018-12-15T10:25:43.890Z,61.70
2018-12-15T10:28:10.305Z,60.80
2018-12-15T10:30:42.800Z,61.10
2018-12-15T10:33:09.163Z,62.70
2018-12-15T10:35:35.546Z,62.60
2018-12-15T10:38:01.895Z,63.30
2018-12-15T10:40:28.283Z,63.50
2018-12-15T10:42:54.676Z,62.50
2018-12-15T10:45:21.066Z,64.80
2018-12-15T10:47:48.698Z,62.60
2018-12-15T10:50:15.344Z,62.30
2018-12-15T10:52:42.100Z,61.50
2018-12-15T10:55:08.655Z,61.80
2018-12-15T10:57:35.061Z,62.80
2018-12-15T11:00:01.559Z,62.50
2018-12-15T11:02:27.980Z,61.10
2018-12-15T11:04:54.367Z,60.60
2018-12-15T11:07:20.770Z,61.70
2018-12-15T11:09:47.164Z,62.90
2018-12-15T11:12:13.564Z,61.90
2018-12-15T11:14:39.955Z,60.10
2018-12-15T11:17:06.457Z,59.80
2018-12-15T11:19:37.186Z,60.20
2018-12-15T11:22:01.276Z,61.10
2018-12-15T11:24:27.698Z,60.30
2018-12-15T11:26:54.126Z,62.20
2018-12-15T11:29:20.547Z,62.10
2018-12-15T11:31:46.927Z,60.50
2018-12-15T11:34:13.310Z,60.30
2018-12-15T11:36:39.739Z,61.20
2018-12-15T11:39:06.291Z,61.10
2018-12-15T11:41:32.678Z,60.20
2018-12-15T11:43:59.067Z,59.50
2018-12-15T11:46:25.574Z,60.80
2018-12-15T11:48:52.012Z,59.20
2018-12-15T11:51:18.416Z,59.40
2018-12-15T11:53:44.866Z,57.50
2018-12-15T11:56:11.370Z,59.70
2018-12-15T11:58:37.750Z,57.80
2018-12-15T12:01:04.416Z,57.10
2018-12-15T12:03:30.775Z,57.50
2018-12-15T12:05:57.176Z,57.50
2018-12-15T12:08:23.660Z,56.70
2018-12-15T12:10:50.088Z,58.10
2018-12-15T12:13:16.460Z,55.70
2018-12-15T12:15:42.919Z,55.10
2018-12-15T12:18:09.348Z,55.90
2018-12-15T12:20:35.770Z,54.90
2018-12-15T12:23:02.164Z,55.20
2018-12-15T12:25:28.702Z,55.20
2018-12-15T12:27:55.152Z,56.50
2018-12-15T12:30:21.756Z,56.80
2018-12-15T12:32:48.158Z,55.30
2018-12-15T12:35:14.520Z,55.90
2018-12-15T12:37:40.960Z,54.80
2018-12-15T12:40:07.582Z,55.80
2018-12-15T12:42:34.072Z,56.30
2018-12-15T12:45:00.480Z,54.70
2018-12-15T12:47:26.965Z,57.90
2018-12-15T12:49:56.843Z,55.10
2018-12-15T12:52:21.794Z,56.40
2018-12-15T12:54:48.202Z,57.10
2018-12-15T12:57:14.584Z,56.60
2018-12-15T12:59:40.953Z,57.30
2018-12-15T13:02:07.391Z,56.10
2018-12-15T13:04:33.796Z,56.80
2018-12-15T13:07:00.331Z,57.20
2018-12-15T13:09:26.734Z,56.40
2018-12-15T13:11:53.158Z,56.70
2018-12-15T13:14:19.623Z,56.70
2018-12-15T13:16:46.001Z,59.00
2018-12-15T13:22:18.127Z,58.10
2018-12-15T13:24:56.974Z,58.10
2018-12-15T13:27:35.948Z,59.60
2018-12-15T13:30:14.934Z,61.10
2018-12-15T13:32:53.630Z,59.30
2018-12-15T13:35:32.394Z,59.10
2018-12-15T13:38:11.079Z,58.40
2018-12-15T13:40:49.755Z,59.30
2018-12-15T13:43:28.482Z,57.00
2018-12-15T13:46:07.155Z,58.40
2018-12-15T13:48:45.902Z,59.20
2018-12-15T13:51:24.679Z,58.10
2018-12-15T13:54:03.638Z,58.60
2018-12-15T13:56:42.474Z,57.70
2018-12-15T13:59:21.301Z,57.90
2018-12-15T14:02:00.312Z,57.20
2018-12-15T14:04:39.099Z,59.80
2018-12-15T14:07:17.834Z,57.30
2018-12-15T14:09:56.674Z,57.40
2018-12-15T14:12:35.427Z,56.20
2018-12-15T14:15:14.100Z,54.40
2018-12-15T14:17:52.935Z,53.60
2018-12-15T14:20:31.686Z,55.00
2018-12-15T14:23:10.490Z,54.70
2018-12-15T14:25:49.182Z,55.70
2018-12-15T14:28:28.062Z,54.90
2018-12-15T14:31:06.846Z,55.50
2018-12-15T14:33:45.534Z,55.70
2018-12-15T14:36:24.202Z,54.70
2018-12-15T14:39:05.288Z,55.60
2018-12-15T14:41:44.020Z,56.10
2018-12-15T14:44:22.651Z,56.00
2018-12-15T14:47:01.317Z,56.00
2018-12-15T14:49:40.094Z,54.80
2018-12-15T14:52:18.796Z,55.70
2018-12-15T14:54:57.558Z,55.90
2018-12-15T14:57:36.599Z,56.60
2018-12-15T15:00:15.406Z,57.20
2018-12-15T15:02:53.979Z,56.10
2018-12-15T15:05:32.793Z,56.20
2018-12-15T15:08:11.513Z,57.60
2018-12-15T15:10:50.387Z,58.60
2018-12-15T15:13:34.432Z,59.30
2018-12-15T15:16:09.972Z,58.70
2018-12-15T15:18:48.605Z,59.70
2018-12-15T15:21:27.468Z,59.00
2018-12-15T15:24:06.248Z,60.70
2018-12-15T15:26:45.031Z,59.60
2018-12-15T15:29:23.642Z,58.70
2018-12-15T15:32:02.530Z,58.80
2018-12-15T15:34:41.434Z,58.40
2018-12-15T15:37:20.182Z,57.50
2018-12-15T15:39:58.895Z,59.20
2018-12-15T15:42:37.700Z,58.50
2018-12-15T15:45:16.371Z,57.70
2018-12-15T15:47:55.040Z,58.80
2018-12-15T15:50:36.615Z,59.60
2018-12-15T15:53:14.489Z,59.30
2018-12-15T15:55:53.198Z,60.10
2018-12-15T15:58:31.960Z,61.00
2018-12-15T16:01:10.582Z,61.80
2018-12-15T16:03:49.539Z,62.30
2018-12-15T16:06:28.323Z,63.40
2018-12-15T16:09:07.159Z,62.30
2018-12-15T16:11:46.100Z,62.50
2018-12-15T16:14:24.896Z,62.60
2018-12-15T16:17:03.550Z,62.00
2018-12-15T16:19:42.330Z,63.40
2018-12-15T16:22:21.172Z,62.60
2018-12-15T16:25:00.121Z,62.90
2018-12-15T16:27:39.144Z,63.50
2018-12-15T16:30:17.888Z,62.80
2018-12-15T16:32:56.798Z,63.20
2018-12-15T16:35:42.649Z,63.30
2018-12-15T16:38:21.432Z,63.70
2018-12-15T16:41:00.196Z,62.60
2018-12-15T16:43:38.893Z,62.30
2018-12-15T16:46:18.776Z,63.70
2018-12-15T16:48:57.863Z,64.00
2018-12-15T16:51:37.118Z,64.30
2018-12-15T16:54:15.871Z,64.40
2018-12-15T16:56:54.855Z,64.70
2018-12-15T16:59:33.548Z,65.70
2018-12-15T17:02:12.254Z,65.60
2018-12-15T17:04:51.216Z,64.90
2018-12-15T17:07:30.094Z,64.80
2018-12-15T17:10:08.879Z,64.60
2018-12-15T17:12:47.647Z,65.10
2018-12-15T17:15:26.583Z,66.10
2018-12-15T17:18:05.431Z,66.60
2018-12-15T17:20:44.286Z,66.20
2018-12-15T17:23:22.989Z,65.40
2018-12-15T17:26:01.761Z,65.50
2018-12-15T17:28:40.537Z,67.20
2018-12-15T17:31:19.252Z,66.50
2018-12-15T17:33:57.992Z,67.60
2018-12-15T17:36:36.856Z,67.50
2018-12-15T17:39:15.906Z,66.50
2018-12-15T17:41:54.777Z,68.30
2018-12-15T17:44:33.527Z,68.10
2018-12-15T17:47:12.239Z,67.80
2018-12-15T17:49:50.909Z,67.00
2018-12-15T17:52:29.723Z,67.30
2018-12-15T17:55:08.468Z,67.70
2018-12-15T17:57:47.131Z,67.70
2018-12-15T18:00:26.080Z,67.40
2018-12-15T18:03:04.783Z,67.60
2018-12-15T18:05:43.477Z,68.60
2018-12-15T18:08:22.155Z,68.40
2018-12-15T18:11:00.964Z,68.50
2018-12-15T18:13:39.706Z,67.50
2018-12-15T18:16:18.382Z,67.30
2018-12-15T18:18:57.296Z,67.30
2018-12-15T18:21:36.093Z,68.80
2018-12-15T18:24:14.768Z,69.20
2018-12-15T18:26:53.525Z,68.50
2018-12-15T18:29:32.407Z,69.80
2018-12-15T18:32:11.248Z,69.50
2018-12-15T18:34:49.843Z,69.10
2018-12-15T18:37:28.519Z,68.50
2018-12-15T18:40:07.439Z,69.60
2018-12-15T18:42:46.283Z,68.90
2018-12-15T18:45:25.092Z,69.20
2018-12-15T18:48:03.782Z,69.80
2018-12-15T18:50:42.505Z,70.40
2018-12-15T18:53:21.203Z,70.40
2018-12-15T18:55:59.846Z,71.20
2018-12-15T18:58:38.570Z,71.00
2018-12-15T19:01:17.335Z,71.40
2018-12-15T19:03:56.138Z,70.80
2018-12-15T19:06:35.652Z,72.10
2018-12-15T19:09:14.666Z,71.00
2018-12-15T19:11:53.423Z,72.40
2018-12-15T19:14:32.075Z,71.80
2018-12-15T19:17:10.959Z,72.40
2018-12-15T19:19:49.808Z,73.60
2018-12-15T19:22:28.625Z,72.10
2018-12-15T19:25:07.523Z,73.40
2018-12-15T19:27:46.375Z,74.60
2018-12-15T19:30:25.295Z,74.10
2018-12-15T19:33:04.324Z,75.10
2018-12-15T19:35:43.044Z,75.90
2018-12-15T19:38:21.894Z,74.90
2018-12-15T19:41:00.666Z,75.10
2018-12-15T19:43:39.202Z,75.20
2018-12-15T19:46:18.090Z,74.90
2018-12-15T19:48:56.911Z,75.10
2018-12-15T19:51:35.652Z,74.80
2018-12-15T19:54:14.752Z,75.00
2018-12-15T19:56:53.498Z,76.30
2018-12-15T19:59:32.183Z,74.80
2018-12-15T20:02:10.949Z,75.20
2018-12-15T20:04:49.726Z,75.10
2018-12-15T20:07:28.498Z,75.00
2018-12-15T20:10:07.284Z,77.20
2018-12-15T20:12:46.184Z,76.20
2018-12-15T20:15:24.826Z,76.80
2018-12-15T20:18:03.500Z,77.40
2018-12-15T20:20:42.241Z,77.20
2018-12-15T20:23:21.055Z,76.50
2018-12-15T20:25:59.701Z,75.60
2018-12-15T20:28:38.444Z,75.20
2018-12-15T20:31:17.235Z,77.10
2018-12-15T20:33:55.994Z,76.00
2018-12-15T20:36:34.719Z,76.20
2018-12-15T20:39:13.504Z,75.60
2018-12-15T20:41:52.349Z,74.70
2018-12-15T20:44:31.096Z,76.40
2018-12-15T20:47:09.834Z,76.80
2018-12-15T20:49:48.646Z,76.40
2018-12-15T20:52:27.348Z,76.10
2018-12-15T20:55:06.106Z,75.80
2018-12-15T20:57:44.938Z,75.80
2018-12-15T21:00:23.674Z,76.40
2018-12-15T21:03:02.426Z,77.20
2018-12-15T21:05:41.322Z,75.40
2018-12-15T21:08:19.993Z,75.00
2018-12-15T21:10:58.749Z,75.10
2018-12-15T21:13:37.424Z,76.50
2018-12-15T21:16:16.256Z,74.70
2018-12-15T21:18:54.995Z,75.50
2018-12-15T21:21:33.719Z,76.90
2018-12-15T21:24:12.431Z,75.90
2018-12-15T21:26:51.246Z,74.90
2018-12-15T21:29:29.963Z,74.80
2018-12-15T21:32:08.590Z,74.60
2018-12-15T21:34:47.312Z,74.30
2018-12-15T21:37:26.374Z,73.80
2018-12-15T21:40:06.122Z,73.10
2018-12-15T21:42:44.791Z,73.10
2018-12-15T21:45:23.666Z,73.80
2018-12-15T21:48:02.541Z,73.40
2018-12-15T21:50:42.291Z,74.00
2018-12-15T21:53:21.120Z,74.00
2018-12-15T21:55:59.847Z,74.40
2018-12-15T21:58:38.680Z,73.30
2018-12-15T22:01:17.412Z,72.70
2018-12-15T22:03:56.427Z,73.00
2018-12-15T22:06:35.013Z,72.50
2018-12-15T22:09:13.673Z,72.50
2018-12-15T22:11:52.617Z,72.50
2018-12-15T22:14:31.285Z,72.30
2018-12-15T22:17:10.021Z,71.20
2018-12-15T22:19:48.627Z,71.60
2018-12-15T22:22:27.444Z,71.80
2018-12-15T22:25:06.386Z,70.60
2018-12-15T22:27:45.190Z,71.10
2018-12-15T22:30:23.946Z,69.30
2018-12-15T22:33:02.557Z,70.60
2018-12-15T22:35:41.497Z,70.20
2018-12-15T22:38:20.372Z,70.20
2018-12-15T22:40:59.248Z,68.80
2018-12-15T22:43:37.931Z,69.20
2018-12-15T22:46:16.799Z,68.70
2018-12-15T22:48:55.499Z,69.50
2018-12-15T22:51:35.066Z,68.40
2018-12-15T22:54:14.069Z,69.60
2018-12-15T22:56:52.894Z,69.60
2018-12-15T22:59:31.647Z,69.90
2018-12-15T23:02:10.581Z,68.10
2018-12-15T23:04:49.332Z,68.90
2018-12-15T23:07:28.130Z,67.70
2018-12-15T23:10:07.054Z,68.40
2018-12-15T23:12:45.784Z,67.80
2018-12-15T23:15:24.452Z,68.30
2018-12-15T23:18:03.212Z,69.50
2018-12-15T23:20:41.899Z,67.70
2018-12-15T23:23:20.647Z,67.20
2018-12-15T23:25:59.310Z,67.70
2018-12-15T23:28:38.004Z,67.90
2018-12-15T23:31:16.826Z,68.20
2018-12-15T23:33:55.725Z,68.20
2018-12-15T23:36:34.619Z,67.60
2018-12-15T23:39:20.496Z,67.60
2018-12-15T23:41:59.378Z,68.20
2018-12-15T23:44:37.983Z,67.60
2018-12-15T23:47:16.691Z,67.60
2018-12-15T23:49:55.500Z,67.90
2018-12-15T23:52:34.267Z,67.90
2018-12-15T23:55:12.935Z,69.00
2018-12-15T23:57:51.579Z,66.50
